sensor_id;sensor_type;location;lat;lon;timestamp;P1;durP1;ratioP1;P2;durP2;ratioP2
75220;SDS011;63802;53.232;6.570;2022-10-04T00:01:18;15.77;;;6.47;;
75220;SDS011;63802;53.232;6.570;2022-10-04T00:03:48;19.55;;;6.55;;
75220;SDS011;63802;53.232;6.570;2022-10-04T00:06:22;18.40;;;5.78;;
75220;SDS011;63802;53.232;6.570;2022-10-04T00:08:51;14.07;;;4.63;;
75220;SDS011;63802;53.232;6.570;2022-10-04T00:11:21;13.85;;;5.13;;
75220;SDS011;63802;53.232;6.570;2022-10-04T00:14:13;17.60;;;5.18;;
75220;SDS011;63802;53.232;6.570;2022-10-04T00:16:52;11.27;;;4.63;;
75220;SDS011;63802;53.232;6.570;2022-10-04T00:24:19;16.65;;;5.88;;
75220;SDS011;63802;53.232;6.570;2022-10-04T00:27:08;12.75;;;5.22;;
75220;SDS011;63802;53.232;6.570;2022-10-04T00:29:43;14.60;;;5.72;;
75220;SDS011;63802;53.232;6.570;2022-10-04T00:37:15;17.27;;;6.10;;
75220;SDS011;63802;53.232;6.570;2022-10-04T00:39:43;13.65;;;5.30;;
75220;SDS011;63802;53.232;6.570;2022-10-04T00:50:53;10.55;;;4.95;;
75220;SDS011;63802;53.232;6.570;2022-10-04T00:53:11;17.55;;;5.40;;
75220;SDS011;63802;53.232;6.570;2022-10-04T00:55:45;14.73;;;5.43;;
75220;SDS011;63802;53.232;6.570;2022-10-04T00:58:21;15.88;;;5.78;;
75220;SDS011;63802;53.232;6.570;2022-10-04T01:00:52;13.38;;;5.38;;
75220;SDS011;63802;53.232;6.570;2022-10-04T01:03:25;14.80;;;5.57;;
75220;SDS011;63802;53.232;6.570;2022-10-04T01:05:55;17.05;;;6.72;;
75220;SDS011;63802;53.232;6.570;2022-10-04T01:08:29;13.63;;;6.00;;
75220;SDS011;63802;53.232;6.570;2022-10-04T01:10:58;18.75;;;6.10;;
75220;SDS011;63802;53.232;6.570;2022-10-04T01:13:37;20.90;;;6.70;;
75220;SDS011;63802;53.232;6.570;2022-10-04T01:16:21;16.88;;;5.50;;
75220;SDS011;63802;53.232;6.570;2022-10-04T01:18:49;15.52;;;4.95;;
75220;SDS011;63802;53.232;6.570;2022-10-04T01:23:45;24.30;;;5.82;;
75220;SDS011;63802;53.232;6.570;2022-10-04T01:29:00;18.77;;;5.70;;
75220;SDS011;63802;53.232;6.570;2022-10-04T01:31:34;20.90;;;6.05;;
75220;SDS011;63802;53.232;6.570;2022-10-04T01:34:02;12.32;;;5.85;;
75220;SDS011;63802;53.232;6.570;2022-10-04T01:36:29;14.52;;;5.60;;
75220;SDS011;63802;53.232;6.570;2022-10-04T01:38:55;18.65;;;7.13;;
75220;SDS011;63802;53.232;6.570;2022-10-04T01:41:23;18.75;;;6.68;;
75220;SDS011;63802;53.232;6.570;2022-10-04T01:43:57;17.88;;;6.70;;
75220;SDS011;63802;53.232;6.570;2022-10-04T01:46:33;20.17;;;6.10;;
75220;SDS011;63802;53.232;6.570;2022-10-04T01:49:04;13.73;;;6.75;;
75220;SDS011;63802;53.232;6.570;2022-10-04T01:51:35;17.80;;;7.03;;
75220;SDS011;63802;53.232;6.570;2022-10-04T01:54:08;17.23;;;6.72;;
75220;SDS011;63802;53.232;6.570;2022-10-04T01:56:41;20.08;;;6.78;;
75220;SDS011;63802;53.232;6.570;2022-10-04T01:59:22;22.73;;;7.10;;
75220;SDS011;63802;53.232;6.570;2022-10-04T02:01:58;17.25;;;6.85;;
75220;SDS011;63802;53.232;6.570;2022-10-04T02:04:32;11.73;;;5.90;;
75220;SDS011;63802;53.232;6.570;2022-10-04T02:07:02;19.58;;;6.85;;
75220;SDS011;63802;53.232;6.570;2022-10-04T02:09:36;15.48;;;7.35;;
75220;SDS011;63802;53.232;6.570;2022-10-04T02:12:05;16.02;;;6.55;;
75220;SDS011;63802;53.232;6.570;2022-10-04T02:14:31;13.63;;;6.70;;
75220;SDS011;63802;53.232;6.570;2022-10-04T02:17:00;19.10;;;7.40;;
75220;SDS011;63802;53.232;6.570;2022-10-04T02:19:36;15.43;;;6.70;;
75220;SDS011;63802;53.232;6.570;2022-10-04T02:22:04;12.98;;;6.75;;
75220;SDS011;63802;53.232;6.570;2022-10-04T02:24:34;21.13;;;7.75;;
75220;SDS011;63802;53.232;6.570;2022-10-04T02:27:02;20.48;;;7.47;;
75220;SDS011;63802;53.232;6.570;2022-10-04T02:29:28;17.45;;;7.28;;
75220;SDS011;63802;53.232;6.570;2022-10-04T02:31:53;15.25;;;6.88;;
75220;SDS011;63802;53.232;6.570;2022-10-04T02:34:38;19.00;;;8.43;;
75220;SDS011;63802;53.232;6.570;2022-10-04T02:37:05;19.92;;;7.88;;
75220;SDS011;63802;53.232;6.570;2022-10-04T02:39:47;23.13;;;7.85;;
75220;SDS011;63802;53.232;6.570;2022-10-04T02:42:26;22.88;;;7.32;;
75220;SDS011;63802;53.232;6.570;2022-10-04T02:44:58;19.33;;;7.60;;
75220;SDS011;63802;53.232;6.570;2022-10-04T02:47:29;15.95;;;7.55;;
75220;SDS011;63802;53.232;6.570;2022-10-04T02:50:08;24.58;;;8.23;;
75220;SDS011;63802;53.232;6.570;2022-10-04T02:52:45;29.60;;;8.40;;
75220;SDS011;63802;53.232;6.570;2022-10-04T02:55:18;18.77;;;7.63;;
75220;SDS011;63802;53.232;6.570;2022-10-04T02:57:46;19.88;;;7.70;;
75220;SDS011;63802;53.232;6.570;2022-10-04T03:05:32;20.17;;;7.70;;
75220;SDS011;63802;53.232;6.570;2022-10-04T03:07:58;15.93;;;7.82;;
75220;SDS011;63802;53.232;6.570;2022-10-04T03:10:24;20.48;;;7.18;;
75220;SDS011;63802;53.232;6.570;2022-10-04T03:12:50;17.10;;;7.07;;
75220;SDS011;63802;53.232;6.570;2022-10-04T03:15:16;15.57;;;7.28;;
75220;SDS011;63802;53.232;6.570;2022-10-04T03:17:42;16.38;;;6.68;;
75220;SDS011;63802;53.232;6.570;2022-10-04T03:20:09;19.17;;;7.40;;
75220;SDS011;63802;53.232;6.570;2022-10-04T03:22:39;15.98;;;7.20;;
75220;SDS011;63802;53.232;6.570;2022-10-04T03:25:05;14.88;;;7.00;;
75220;SDS011;63802;53.232;6.570;2022-10-04T03:27:50;14.63;;;6.80;;
75220;SDS011;63802;53.232;6.570;2022-10-04T03:30:16;19.85;;;7.10;;
75220;SDS011;63802;53.232;6.570;2022-10-04T03:32:45;17.92;;;6.35;;
75220;SDS011;63802;53.232;6.570;2022-10-04T03:35:25;16.40;;;6.78;;
75220;SDS011;63802;53.232;6.570;2022-10-04T03:37:55;14.93;;;7.20;;
75220;SDS011;63802;53.232;6.570;2022-10-04T03:40:23;19.27;;;6.72;;
75220;SDS011;63802;53.232;6.570;2022-10-04T03:42:51;19.60;;;7.82;;
75220;SDS011;63802;53.232;6.570;2022-10-04T03:45:17;16.55;;;7.45;;
75220;SDS011;63802;53.232;6.570;2022-10-04T03:47:45;18.98;;;7.25;;
75220;SDS011;63802;53.232;6.570;2022-10-04T03:52:47;19.13;;;7.75;;
75220;SDS011;63802;53.232;6.570;2022-10-04T03:55:17;19.23;;;7.45;;
75220;SDS011;63802;53.232;6.570;2022-10-04T03:57:44;17.98;;;7.65;;
75220;SDS011;63802;53.232;6.570;2022-10-04T04:00:13;22.95;;;8.40;;
75220;SDS011;63802;53.232;6.570;2022-10-04T04:05:43;18.00;;;7.40;;
75220;SDS011;63802;53.232;6.570;2022-10-04T04:08:28;22.25;;;8.07;;
75220;SDS011;63802;53.232;6.570;2022-10-04T04:10:58;14.75;;;6.95;;
75220;SDS011;63802;53.232;6.570;2022-10-04T04:15:55;18.45;;;7.18;;
75220;SDS011;63802;53.232;6.570;2022-10-04T04:18:25;21.02;;;7.10;;
75220;SDS011;63802;53.232;6.570;2022-10-04T04:20:54;16.00;;;6.55;;
75220;SDS011;63802;53.232;6.570;2022-10-04T04:23:27;19.83;;;7.60;;
75220;SDS011;63802;53.232;6.570;2022-10-04T04:28:49;16.77;;;7.95;;
75220;SDS011;63802;53.232;6.570;2022-10-04T04:31:28;22.10;;;8.18;;
75220;SDS011;63802;53.232;6.570;2022-10-04T04:33:56;22.38;;;8.85;;
75220;SDS011;63802;53.232;6.570;2022-10-04T04:36:25;18.02;;;8.77;;
75220;SDS011;63802;53.232;6.570;2022-10-04T04:39:05;15.13;;;7.10;;
75220;SDS011;63802;53.232;6.570;2022-10-04T04:44:36;20.05;;;8.70;;
75220;SDS011;63802;53.232;6.570;2022-10-04T04:47:07;23.92;;;8.55;;
75220;SDS011;63802;53.232;6.570;2022-10-04T04:49:36;18.70;;;8.80;;
75220;SDS011;63802;53.232;6.570;2022-10-04T04:52:04;22.65;;;8.40;;
75220;SDS011;63802;53.232;6.570;2022-10-04T04:54:29;20.50;;;8.35;;
75220;SDS011;63802;53.232;6.570;2022-10-04T04:56:55;17.23;;;7.90;;
75220;SDS011;63802;53.232;6.570;2022-10-04T04:59:21;22.52;;;8.68;;
75220;SDS011;63802;53.232;6.570;2022-10-04T05:01:49;22.13;;;8.27;;
75220;SDS011;63802;53.232;6.570;2022-10-04T05:06:58;18.50;;;8.40;;
75220;SDS011;63802;53.232;6.570;2022-10-04T05:11:58;18.52;;;8.23;;
75220;SDS011;63802;53.232;6.570;2022-10-04T05:14:31;19.25;;;8.90;;
75220;SDS011;63802;53.232;6.570;2022-10-04T05:16:58;24.55;;;9.43;;
75220;SDS011;63802;53.232;6.570;2022-10-04T05:19:24;18.85;;;8.85;;
75220;SDS011;63802;53.232;6.570;2022-10-04T05:21:55;17.42;;;8.90;;
75220;SDS011;63802;53.232;6.570;2022-10-04T05:24:27;17.98;;;10.05;;
75220;SDS011;63802;53.232;6.570;2022-10-04T05:26:58;18.58;;;10.57;;
75220;SDS011;63802;53.232;6.570;2022-10-04T05:29:27;24.20;;;10.35;;
75220;SDS011;63802;53.232;6.570;2022-10-04T05:34:44;26.33;;;11.02;;
75220;SDS011;63802;53.232;6.570;2022-10-04T05:42:44;23.80;;;11.15;;
75220;SDS011;63802;53.232;6.570;2022-10-04T05:45:17;23.33;;;10.82;;
75220;SDS011;63802;53.232;6.570;2022-10-04T05:47:46;31.88;;;12.07;;
75220;SDS011;63802;53.232;6.570;2022-10-04T05:50:15;22.98;;;11.27;;
75220;SDS011;63802;53.232;6.570;2022-10-04T05:52:48;29.10;;;11.25;;
75220;SDS011;63802;53.232;6.570;2022-10-04T05:55:27;35.75;;;11.57;;
75220;SDS011;63802;53.232;6.570;2022-10-04T06:03:58;21.67;;;10.55;;
75220;SDS011;63802;53.232;6.570;2022-10-04T06:12:08;25.90;;;11.15;;
75220;SDS011;63802;53.232;6.570;2022-10-04T06:17:35;27.15;;;10.77;;
75220;SDS011;63802;53.232;6.570;2022-10-04T06:22:47;26.33;;;11.90;;
75220;SDS011;63802;53.232;6.570;2022-10-04T06:25:25;24.45;;;10.80;;
75220;SDS011;63802;53.232;6.570;2022-10-04T06:28:45;26.95;;;10.98;;
75220;SDS011;63802;53.232;6.570;2022-10-04T06:36:52;24.30;;;10.80;;
75220;SDS011;63802;53.232;6.570;2022-10-04T06:57:12;21.67;;;10.73;;
75220;SDS011;63802;53.232;6.570;2022-10-04T07:00:03;22.52;;;9.45;;
75220;SDS011;63802;53.232;6.570;2022-10-04T07:05:12;19.98;;;9.68;;
75220;SDS011;63802;53.232;6.570;2022-10-04T07:07:43;24.50;;;10.48;;
75220;SDS011;63802;53.232;6.570;2022-10-04T07:10:22;20.17;;;10.27;;
75220;SDS011;63802;53.232;6.570;2022-10-04T07:13:05;21.95;;;9.70;;
75220;SDS011;63802;53.232;6.570;2022-10-04T07:18:06;19.83;;;9.10;;
75220;SDS011;63802;53.232;6.570;2022-10-04T07:20:35;24.50;;;10.05;;
75220;SDS011;63802;53.232;6.570;2022-10-04T07:23:04;24.90;;;9.05;;
75220;SDS011;63802;53.232;6.570;2022-10-04T07:25:44;22.00;;;8.52;;
75220;SDS011;63802;53.232;6.570;2022-10-04T07:28:15;19.88;;;9.05;;
75220;SDS011;63802;53.232;6.570;2022-10-04T07:33:42;19.35;;;9.93;;
75220;SDS011;63802;53.232;6.570;2022-10-04T07:36:12;22.40;;;9.35;;
75220;SDS011;63802;53.232;6.570;2022-10-04T07:38:44;20.50;;;10.63;;
75220;SDS011;63802;53.232;6.570;2022-10-04T07:41:19;17.52;;;8.77;;
75220;SDS011;63802;53.232;6.570;2022-10-04T07:44:28;19.10;;;9.00;;
75220;SDS011;63802;53.232;6.570;2022-10-04T07:49:14;18.45;;;8.95;;
75220;SDS011;63802;53.232;6.570;2022-10-04T07:54:53;18.02;;;8.18;;
75220;SDS011;63802;53.232;6.570;2022-10-04T07:58:11;19.67;;;8.73;;
75220;SDS011;63802;53.232;6.570;2022-10-04T08:00:46;17.20;;;8.50;;
75220;SDS011;63802;53.232;6.570;2022-10-04T08:05:51;15.20;;;8.35;;
75220;SDS011;63802;53.232;6.570;2022-10-04T08:08:36;18.80;;;7.90;;
75220;SDS011;63802;53.232;6.570;2022-10-04T08:13:59;19.60;;;8.57;;
75220;SDS011;63802;53.232;6.570;2022-10-04T08:19:41;17.92;;;9.40;;
75220;SDS011;63802;53.232;6.570;2022-10-04T08:22:29;15.00;;;8.93;;
75220;SDS011;63802;53.232;6.570;2022-10-04T08:25:10;18.65;;;9.25;;
75220;SDS011;63802;53.232;6.570;2022-10-04T08:27:45;20.92;;;9.52;;
75220;SDS011;63802;53.232;6.570;2022-10-04T08:30:39;22.67;;;9.32;;
75220;SDS011;63802;53.232;6.570;2022-10-04T08:33:35;27.25;;;10.93;;
75220;SDS011;63802;53.232;6.570;2022-10-04T08:39:05;22.13;;;9.93;;
75220;SDS011;63802;53.232;6.570;2022-10-04T08:47:46;20.13;;;8.95;;
75220;SDS011;63802;53.232;6.570;2022-10-04T08:56:38;14.40;;;7.72;;
75220;SDS011;63802;53.232;6.570;2022-10-04T08:59:31;16.35;;;8.20;;
75220;SDS011;63802;53.232;6.570;2022-10-04T09:02:27;15.10;;;6.95;;
75220;SDS011;63802;53.232;6.570;2022-10-04T09:10:50;13.63;;;6.70;;
75220;SDS011;63802;53.232;6.570;2022-10-04T09:16:17;14.15;;;6.32;;
75220;SDS011;63802;53.232;6.570;2022-10-04T09:43:02;10.13;;;4.63;;
75220;SDS011;63802;53.232;6.570;2022-10-04T09:48:24;10.18;;;4.35;;
75220;SDS011;63802;53.232;6.570;2022-10-04T09:51:03;10.82;;;4.30;;
75220;SDS011;63802;53.232;6.570;2022-10-04T10:07:56;9.82;;;3.90;;
75220;SDS011;63802;53.232;6.570;2022-10-04T10:17:01;11.40;;;4.53;;
75220;SDS011;63802;53.232;6.570;2022-10-04T10:20:01;12.25;;;4.53;;
75220;SDS011;63802;53.232;6.570;2022-10-04T10:31:38;8.77;;;4.30;;
75220;SDS011;63802;53.232;6.570;2022-10-04T10:39:25;8.60;;;3.55;;
75220;SDS011;63802;53.232;6.570;2022-10-04T10:48:04;8.15;;;4.25;;
75220;SDS011;63802;53.232;6.570;2022-10-04T10:56:03;7.63;;;3.65;;
75220;SDS011;63802;53.232;6.570;2022-10-04T11:04:21;8.18;;;3.50;;
75220;SDS011;63802;53.232;6.570;2022-10-04T11:12:54;8.38;;;3.28;;
75220;SDS011;63802;53.232;6.570;2022-10-04T11:15:36;6.50;;;3.00;;
75220;SDS011;63802;53.232;6.570;2022-10-04T11:26:48;6.07;;;3.25;;
75220;SDS011;63802;53.232;6.570;2022-10-04T11:32:00;6.07;;;3.75;;
75220;SDS011;63802;53.232;6.570;2022-10-04T11:35:08;6.05;;;3.40;;
75220;SDS011;63802;53.232;6.570;2022-10-04T12:00:18;5.97;;;3.20;;
75220;SDS011;63802;53.232;6.570;2022-10-04T12:09:02;7.45;;;3.65;;
75220;SDS011;63802;53.232;6.570;2022-10-04T12:23:48;7.93;;;3.53;;
75220;SDS011;63802;53.232;6.570;2022-10-04T12:37:34;8.40;;;3.65;;
75220;SDS011;63802;53.232;6.570;2022-10-04T12:40:20;8.38;;;3.83;;
75220;SDS011;63802;53.232;6.570;2022-10-04T12:43:06;9.57;;;3.47;;
75220;SDS011;63802;53.232;6.570;2022-10-04T12:57:06;8.98;;;3.72;;
75220;SDS011;63802;53.232;6.570;2022-10-04T12:59:50;10.57;;;4.30;;
75220;SDS011;63802;53.232;6.570;2022-10-04T13:04:53;9.73;;;4.15;;
75220;SDS011;63802;53.232;6.570;2022-10-04T13:15:52;7.20;;;3.90;;
75220;SDS011;63802;53.232;6.570;2022-10-04T13:24:06;6.80;;;2.70;;
75220;SDS011;63802;53.232;6.570;2022-10-04T13:27:03;9.13;;;4.32;;
75220;SDS011;63802;53.232;6.570;2022-10-04T13:32:10;10.45;;;4.10;;
75220;SDS011;63802;53.232;6.570;2022-10-04T13:51:00;9.85;;;4.55;;
75220;SDS011;63802;53.232;6.570;2022-10-04T13:53:57;10.38;;;4.82;;
75220;SDS011;63802;53.232;6.570;2022-10-04T14:28:30;7.05;;;3.33;;
75220;SDS011;63802;53.232;6.570;2022-10-04T14:46:06;6.55;;;3.33;;
75220;SDS011;63802;53.232;6.570;2022-10-04T14:48:45;7.68;;;2.88;;
75220;SDS011;63802;53.232;6.570;2022-10-04T14:51:19;7.18;;;3.42;;
75220;SDS011;63802;53.232;6.570;2022-10-04T14:54:02;9.07;;;3.53;;
75220;SDS011;63802;53.232;6.570;2022-10-04T14:56:47;11.00;;;3.40;;
75220;SDS011;63802;53.232;6.570;2022-10-04T15:07:16;6.38;;;3.22;;
75220;SDS011;63802;53.232;6.570;2022-10-04T15:10:04;6.45;;;3.05;;
75220;SDS011;63802;53.232;6.570;2022-10-04T15:12:44;8.52;;;3.00;;
75220;SDS011;63802;53.232;6.570;2022-10-04T15:15:25;6.38;;;2.97;;
75220;SDS011;63802;53.232;6.570;2022-10-04T15:23:29;6.57;;;3.00;;
75220;SDS011;63802;53.232;6.570;2022-10-04T15:26:02;5.97;;;3.33;;
75220;SDS011;63802;53.232;6.570;2022-10-04T15:34:00;8.77;;;3.13;;
75220;SDS011;63802;53.232;6.570;2022-10-04T15:41:54;5.93;;;2.83;;
75220;SDS011;63802;53.232;6.570;2022-10-04T15:48:00;9.55;;;3.58;;
75220;SDS011;63802;53.232;6.570;2022-10-04T15:50:59;5.18;;;3.08;;
75220;SDS011;63802;53.232;6.570;2022-10-04T15:53:40;8.00;;;3.17;;
75220;SDS011;63802;53.232;6.570;2022-10-04T15:56:32;6.10;;;3.10;;
75220;SDS011;63802;53.232;6.570;2022-10-04T16:10:27;4.63;;;2.90;;
75220;SDS011;63802;53.232;6.570;2022-10-04T16:15:42;7.03;;;2.60;;
75220;SDS011;63802;53.232;6.570;2022-10-04T16:39:35;5.13;;;2.83;;
75220;SDS011;63802;53.232;6.570;2022-10-04T16:42:33;8.75;;;2.90;;
75220;SDS011;63802;53.232;6.570;2022-10-04T16:47:35;7.43;;;3.05;;
75220;SDS011;63802;53.232;6.570;2022-10-04T16:50:08;7.05;;;3.10;;
75220;SDS011;63802;53.232;6.570;2022-10-04T16:55:24;10.30;;;3.63;;
75220;SDS011;63802;53.232;6.570;2022-10-04T17:01:19;10.02;;;2.60;;
75220;SDS011;63802;53.232;6.570;2022-10-04T17:04:00;9.18;;;2.92;;
75220;SDS011;63802;53.232;6.570;2022-10-04T17:14:55;6.57;;;2.65;;
75220;SDS011;63802;53.232;6.570;2022-10-04T17:17:43;8.52;;;3.60;;
75220;SDS011;63802;53.232;6.570;2022-10-04T17:23:10;5.95;;;3.10;;
75220;SDS011;63802;53.232;6.570;2022-10-04T17:26:16;7.38;;;2.95;;
75220;SDS011;63802;53.232;6.570;2022-10-04T17:34:44;11.35;;;3.47;;
75220;SDS011;63802;53.232;6.570;2022-10-04T17:39:58;7.70;;;3.65;;
75220;SDS011;63802;53.232;6.570;2022-10-04T17:48:23;8.30;;;4.10;;
75220;SDS011;63802;53.232;6.570;2022-10-04T17:54:15;9.20;;;4.07;;
75220;SDS011;63802;53.232;6.570;2022-10-04T17:59:37;9.95;;;4.50;;
75220;SDS011;63802;53.232;6.570;2022-10-04T18:02:10;7.45;;;3.83;;
75220;SDS011;63802;53.232;6.570;2022-10-04T18:04:44;7.97;;;3.75;;
75220;SDS011;63802;53.232;6.570;2022-10-04T18:07:19;7.97;;;3.53;;
75220;SDS011;63802;53.232;6.570;2022-10-04T18:09:52;15.25;;;4.53;;
75220;SDS011;63802;53.232;6.570;2022-10-04T18:15:02;8.60;;;4.15;;
75220;SDS011;63802;53.232;6.570;2022-10-04T18:17:33;9.20;;;4.45;;
75220;SDS011;63802;53.232;6.570;2022-10-04T18:20:15;8.85;;;3.85;;
75220;SDS011;63802;53.232;6.570;2022-10-04T18:22:46;9.95;;;3.83;;
75220;SDS011;63802;53.232;6.570;2022-10-04T18:25:14;8.13;;;4.00;;
75220;SDS011;63802;53.232;6.570;2022-10-04T18:28:28;11.77;;;4.40;;
75220;SDS011;63802;53.232;6.570;2022-10-04T18:33:16;8.30;;;4.03;;
75220;SDS011;63802;53.232;6.570;2022-10-04T18:35:52;9.70;;;4.22;;
75220;SDS011;63802;53.232;6.570;2022-10-04T18:40:57;10.32;;;4.35;;
75220;SDS011;63802;53.232;6.570;2022-10-04T18:43:30;10.45;;;4.00;;
75220;SDS011;63802;53.232;6.570;2022-10-04T18:45:59;9.63;;;4.55;;
75220;SDS011;63802;53.232;6.570;2022-10-04T18:48:40;8.80;;;4.40;;
75220;SDS011;63802;53.232;6.570;2022-10-04T18:51:34;11.50;;;4.28;;
75220;SDS011;63802;53.232;6.570;2022-10-04T18:54:07;8.85;;;4.78;;
75220;SDS011;63802;53.232;6.570;2022-10-04T18:59:49;11.52;;;4.78;;
75220;SDS011;63802;53.232;6.570;2022-10-04T19:08:31;8.88;;;4.07;;
75220;SDS011;63802;53.232;6.570;2022-10-04T19:11:04;8.20;;;4.13;;
75220;SDS011;63802;53.232;6.570;2022-10-04T19:13:57;12.07;;;4.72;;
75220;SDS011;63802;53.232;6.570;2022-10-04T19:22:14;10.20;;;4.85;;
75220;SDS011;63802;53.232;6.570;2022-10-04T19:27:34;9.60;;;4.38;;
75220;SDS011;63802;53.232;6.570;2022-10-04T19:30:19;7.45;;;4.05;;
75220;SDS011;63802;53.232;6.570;2022-10-04T19:32:50;9.50;;;4.53;;
75220;SDS011;63802;53.232;6.570;2022-10-04T19:35:45;10.85;;;4.72;;
75220;SDS011;63802;53.232;6.570;2022-10-04T19:41:23;13.82;;;5.00;;
75220;SDS011;63802;53.232;6.570;2022-10-04T19:49:43;11.73;;;5.07;;
75220;SDS011;63802;53.232;6.570;2022-10-04T19:52:14;12.68;;;5.30;;
75220;SDS011;63802;53.232;6.570;2022-10-04T19:54:41;12.30;;;4.80;;
75220;SDS011;63802;53.232;6.570;2022-10-04T19:57:12;11.77;;;5.72;;
75220;SDS011;63802;53.232;6.570;2022-10-04T19:59:39;9.80;;;4.30;;
75220;SDS011;63802;53.232;6.570;2022-10-04T20:02:08;14.80;;;5.18;;
75220;SDS011;63802;53.232;6.570;2022-10-04T20:04:34;10.18;;;4.95;;
75220;SDS011;63802;53.232;6.570;2022-10-04T20:07:04;11.52;;;5.15;;
75220;SDS011;63802;53.232;6.570;2022-10-04T20:12:01;14.85;;;4.95;;
75220;SDS011;63802;53.232;6.570;2022-10-04T20:14:47;12.55;;;5.07;;
75220;SDS011;63802;53.232;6.570;2022-10-04T20:17:28;11.07;;;5.18;;
75220;SDS011;63802;53.232;6.570;2022-10-04T20:19:54;12.43;;;5.30;;
75220;SDS011;63802;53.232;6.570;2022-10-04T20:22:26;9.23;;;4.63;;
75220;SDS011;63802;53.232;6.570;2022-10-04T20:24:53;11.10;;;5.38;;
75220;SDS011;63802;53.232;6.570;2022-10-04T20:34:58;11.38;;;5.32;;
75220;SDS011;63802;53.232;6.570;2022-10-04T20:40:09;11.23;;;5.35;;
75220;SDS011;63802;53.232;6.570;2022-10-04T20:42:36;10.70;;;5.25;;
75220;SDS011;63802;53.232;6.570;2022-10-04T20:52:34;14.43;;;5.35;;
75220;SDS011;63802;53.232;6.570;2022-10-04T20:55:01;18.05;;;6.05;;
75220;SDS011;63802;53.232;6.570;2022-10-04T20:57:36;14.73;;;6.35;;
75220;SDS011;63802;53.232;6.570;2022-10-04T21:00:04;11.70;;;5.28;;
75220;SDS011;63802;53.232;6.570;2022-10-04T21:02:30;9.40;;;5.53;;
75220;SDS011;63802;53.232;6.570;2022-10-04T21:05:10;16.33;;;5.65;;
75220;SDS011;63802;53.232;6.570;2022-10-04T21:08:19;10.77;;;5.10;;
75220;SDS011;63802;53.232;6.570;2022-10-04T21:11:03;13.68;;;5.40;;
75220;SDS011;63802;53.232;6.570;2022-10-04T21:13:50;12.18;;;5.38;;
75220;SDS011;63802;53.232;6.570;2022-10-04T21:16:38;14.20;;;5.90;;
75220;SDS011;63802;53.232;6.570;2022-10-04T21:21:55;14.23;;;5.72;;
75220;SDS011;63802;53.232;6.570;2022-10-04T21:24:41;14.35;;;5.40;;
75220;SDS011;63802;53.232;6.570;2022-10-04T21:27:07;14.23;;;5.93;;
75220;SDS011;63802;53.232;6.570;2022-10-04T21:29:34;12.88;;;5.95;;
75220;SDS011;63802;53.232;6.570;2022-10-04T21:32:00;14.18;;;5.68;;
75220;SDS011;63802;53.232;6.570;2022-10-04T21:34:26;12.98;;;5.60;;
75220;SDS011;63802;53.232;6.570;2022-10-04T21:36:52;16.55;;;5.55;;
75220;SDS011;63802;53.232;6.570;2022-10-04T21:39:17;10.63;;;4.78;;
75220;SDS011;63802;53.232;6.570;2022-10-04T21:41:43;10.98;;;5.53;;
75220;SDS011;63802;53.232;6.570;2022-10-04T21:44:09;13.05;;;5.78;;
75220;SDS011;63802;53.232;6.570;2022-10-04T21:46:34;11.82;;;6.22;;
75220;SDS011;63802;53.232;6.570;2022-10-04T21:49:01;13.50;;;5.45;;
75220;SDS011;63802;53.232;6.570;2022-10-04T21:51:30;12.18;;;5.85;;
75220;SDS011;63802;53.232;6.570;2022-10-04T21:53:57;12.15;;;5.70;;
75220;SDS011;63802;53.232;6.570;2022-10-04T21:56:23;14.32;;;5.45;;
75220;SDS011;63802;53.232;6.570;2022-10-04T21:58:49;11.55;;;5.60;;
75220;SDS011;63802;53.232;6.570;2022-10-04T22:01:14;19.17;;;7.10;;
75220;SDS011;63802;53.232;6.570;2022-10-04T22:03:40;13.30;;;5.80;;
75220;SDS011;63802;53.232;6.570;2022-10-04T22:06:05;12.68;;;5.35;;
75220;SDS011;63802;53.232;6.570;2022-10-04T22:08:30;11.60;;;5.63;;
75220;SDS011;63802;53.232;6.570;2022-10-04T22:10:56;14.13;;;6.05;;
75220;SDS011;63802;53.232;6.570;2022-10-04T22:13:21;11.00;;;5.45;;
75220;SDS011;63802;53.232;6.570;2022-10-04T22:15:46;12.43;;;6.57;;
75220;SDS011;63802;53.232;6.570;2022-10-04T22:18:12;15.57;;;6.32;;
75220;SDS011;63802;53.232;6.570;2022-10-04T22:20:38;15.52;;;5.78;;
75220;SDS011;63802;53.232;6.570;2022-10-04T22:23:05;11.30;;;5.65;;
75220;SDS011;63802;53.232;6.570;2022-10-04T22:25:38;12.10;;;5.68;;
75220;SDS011;63802;53.232;6.570;2022-10-04T22:28:12;12.45;;;6.32;;
75220;SDS011;63802;53.232;6.570;2022-10-04T22:30:42;15.13;;;6.00;;
75220;SDS011;63802;53.232;6.570;2022-10-04T22:33:16;11.90;;;5.93;;
75220;SDS011;63802;53.232;6.570;2022-10-04T22:38:29;10.57;;;4.90;;
75220;SDS011;63802;53.232;6.570;2022-10-04T22:40:55;14.85;;;5.38;;
75220;SDS011;63802;53.232;6.570;2022-10-04T22:43:21;13.15;;;5.53;;
75220;SDS011;63802;53.232;6.570;2022-10-04T22:45:46;12.65;;;5.63;;
75220;SDS011;63802;53.232;6.570;2022-10-04T22:48:12;14.73;;;5.80;;
75220;SDS011;63802;53.232;6.570;2022-10-04T22:50:39;12.55;;;5.47;;
75220;SDS011;63802;53.232;6.570;2022-10-04T22:53:13;12.60;;;5.95;;
75220;SDS011;63802;53.232;6.570;2022-10-04T22:55:41;10.13;;;5.35;;
75220;SDS011;63802;53.232;6.570;2022-10-04T22:58:09;13.30;;;5.97;;
75220;SDS011;63802;53.232;6.570;2022-10-04T23:00:37;12.65;;;5.57;;
75220;SDS011;63802;53.232;6.570;2022-10-04T23:03:07;12.30;;;5.65;;
75220;SDS011;63802;53.232;6.570;2022-10-04T23:05:45;12.48;;;5.40;;
75220;SDS011;63802;53.232;6.570;2022-10-04T23:08:10;11.93;;;5.50;;
75220;SDS011;63802;53.232;6.570;2022-10-04T23:10:36;9.77;;;5.32;;
75220;SDS011;63802;53.232;6.570;2022-10-04T23:13:01;13.18;;;5.40;;
75220;SDS011;63802;53.232;6.570;2022-10-04T23:15:27;12.18;;;5.80;;
75220;SDS011;63802;53.232;6.570;2022-10-04T23:17:53;12.55;;;6.25;;
75220;SDS011;63802;53.232;6.570;2022-10-04T23:20:19;11.50;;;5.90;;
75220;SDS011;63802;53.232;6.570;2022-10-04T23:22:46;11.00;;;5.75;;
75220;SDS011;63802;53.232;6.570;2022-10-04T23:25:15;10.70;;;5.90;;
75220;SDS011;63802;53.232;6.570;2022-10-04T23:27:46;12.00;;;5.50;;
75220;SDS011;63802;53.232;6.570;2022-10-04T23:30:13;16.58;;;6.20;;
75220;SDS011;63802;53.232;6.570;2022-10-04T23:32:42;13.05;;;5.68;;
75220;SDS011;63802;53.232;6.570;2022-10-04T23:35:13;9.57;;;5.47;;
75220;SDS011;63802;53.232;6.570;2022-10-04T23:37:44;12.50;;;5.70;;
75220;SDS011;63802;53.232;6.570;2022-10-04T23:40:14;14.13;;;7.05;;
75220;SDS011;63802;53.232;6.570;2022-10-04T23:42:43;15.38;;;6.57;;
75220;SDS011;63802;53.232;6.570;2022-10-04T23:45:31;10.52;;;5.82;;
75220;SDS011;63802;53.232;6.570;2022-10-04T23:47:56;13.60;;;6.40;;
75220;SDS011;63802;53.232;6.570;2022-10-04T23:52:55;13.40;;;6.05;;
75220;SDS011;63802;53.232;6.570;2022-10-04T23:55:30;11.07;;;5.78;;
75220;SDS011;63802;53.232;6.570;2022-10-04T23:57:59;14.63;;;5.60;;
